Woodson, Arkansas
Current Conditions -  °F | °C
As of 2:53 AM on Monday 24 Nov 2014 (Local Time) from KLIT Reporting Station
Overcast Overcast  
Wind Chill: 51°   Ceiling: 3300
Heat Index: 51°   Visibility: 10mi
Dew Point: 40°   Wind: 17mph
Humidity: 66%   Direction: 280°W
Pressure: 29.64"   Gusts: NA
Location:  34.53°N, 92.21°W
Report Text: KLIT 240853Z 28015KT 10SM OVC033 11/04 A2964 RMK AO2 PK WND 28031/0754 SLP037 T01060044 53055
Loading
Personal Weather Stations






























Interactive Weather Map New forecast layout! Learn more

10-Day Weather Forecast

Advertisements
Track Severe Weather on mobile